sensor_id;sensor_type;location;lat;lon;timestamp;temperature;humidity
45868;DHT22;31582;45.490;7.860;2023-04-15T00:01:35;9.20;47.20
45868;DHT22;31582;45.490;7.860;2023-04-15T00:04:03;9.20;46.60
45868;DHT22;31582;45.490;7.860;2023-04-15T00:06:30;9.20;46.50
45868;DHT22;31582;45.490;7.860;2023-04-15T00:08:57;9.20;46.50
45868;DHT22;31582;45.490;7.860;2023-04-15T00:11:24;9.20;46.40
45868;DHT22;31582;45.490;7.860;2023-04-15T00:13:51;9.10;46.90
45868;DHT22;31582;45.490;7.860;2023-04-15T00:16:18;9.10;46.70
45868;DHT22;31582;45.490;7.860;2023-04-15T00:18:45;9.00;46.70
45868;DHT22;31582;45.490;7.860;2023-04-15T00:21:12;9.00;47.10
45868;DHT22;31582;45.490;7.860;2023-04-15T00:23:39;8.90;47.60
45868;DHT22;31582;45.490;7.860;2023-04-15T00:26:06;8.80;48.00
45868;DHT22;31582;45.490;7.860;2023-04-15T00:28:34;8.80;48.00
45868;DHT22;31582;45.490;7.860;2023-04-15T00:31:01;8.70;47.70
45868;DHT22;31582;45.490;7.860;2023-04-15T00:33:28;8.70;48.30
45868;DHT22;31582;45.490;7.860;2023-04-15T00:35:54;8.60;48.20
45868;DHT22;31582;45.490;7.860;2023-04-15T00:38:21;8.60;47.90
45868;DHT22;31582;45.490;7.860;2023-04-15T00:40:49;8.50;48.80
45868;DHT22;31582;45.490;7.860;2023-04-15T00:43:16;8.50;49.40
45868;DHT22;31582;45.490;7.860;2023-04-15T00:45:43;8.40;49.50
45868;DHT22;31582;45.490;7.860;2023-04-15T00:48:10;8.40;49.90
45868;DHT22;31582;45.490;7.860;2023-04-15T00:50:37;8.30;49.20
45868;DHT22;31582;45.490;7.860;2023-04-15T00:53:04;8.40;50.90
45868;DHT22;31582;45.490;7.860;2023-04-15T00:55:31;8.40;49.50
45868;DHT22;31582;45.490;7.860;2023-04-15T00:57:58;8.40;49.00
45868;DHT22;31582;45.490;7.860;2023-04-15T01:00:25;8.30;49.20
45868;DHT22;31582;45.490;7.860;2023-04-15T19:55:23;12.60;51.00
45868;DHT22;31582;45.490;7.860;2023-04-15T19:57:50;12.50;51.40
45868;DHT22;31582;45.490;7.860;2023-04-15T20:00:17;12.40;52.00
45868;DHT22;31582;45.490;7.860;2023-04-15T20:02:44;12.30;52.10
45868;DHT22;31582;45.490;7.860;2023-04-15T20:05:12;12.20;52.30
45868;DHT22;31582;45.490;7.860;2023-04-15T20:07:39;12.10;52.70
45868;DHT22;31582;45.490;7.860;2023-04-15T20:10:08;12.00;52.70
45868;DHT22;31582;45.490;7.860;2023-04-15T20:12:39;12.00;53.60
45868;DHT22;31582;45.490;7.860;2023-04-15T20:15:18;11.90;54.40
45868;DHT22;31582;45.490;7.860;2023-04-15T20:17:46;11.80;54.30
45868;DHT22;31582;45.490;7.860;2023-04-15T20:20:13;11.80;55.30
45868;DHT22;31582;45.490;7.860;2023-04-15T20:22:40;11.70;55.10
45868;DHT22;31582;45.490;7.860;2023-04-15T20:25:07;11.70;56.60
45868;DHT22;31582;45.490;7.860;2023-04-15T20:27:34;11.60;56.50
45868;DHT22;31582;45.490;7.860;2023-04-15T20:30:03;11.60;56.60
45868;DHT22;31582;45.490;7.860;2023-04-15T20:32:31;11.40;59.00
45868;DHT22;31582;45.490;7.860;2023-04-15T20:35:03;11.30;57.40
45868;DHT22;31582;45.490;7.860;2023-04-15T20:37:31;11.20;58.60
45868;DHT22;31582;45.490;7.860;2023-04-15T20:39:59;11.20;59.90
45868;DHT22;31582;45.490;7.860;2023-04-15T20:42:27;11.10;60.40
45868;DHT22;31582;45.490;7.860;2023-04-15T20:44:57;11.00;61.90
45868;DHT22;31582;45.490;7.860;2023-04-15T20:47:24;11.00;60.70
45868;DHT22;31582;45.490;7.860;2023-04-15T20:49:52;10.90;61.00
45868;DHT22;31582;45.490;7.860;2023-04-15T20:52:19;10.90;61.50
45868;DHT22;31582;45.490;7.860;2023-04-15T20:54:46;10.90;62.90
45868;DHT22;31582;45.490;7.860;2023-04-15T20:57:13;10.80;64.50
45868;DHT22;31582;45.490;7.860;2023-04-15T20:59:40;10.80;63.60
45868;DHT22;31582;45.490;7.860;2023-04-15T21:02:07;10.70;63.00
45868;DHT22;31582;45.490;7.860;2023-04-15T21:04:34;10.70;64.10
45868;DHT22;31582;45.490;7.860;2023-04-15T21:07:03;10.60;65.10
45868;DHT22;31582;45.490;7.860;2023-04-15T21:09:30;10.60;66.70
45868;DHT22;31582;45.490;7.860;2023-04-15T21:11:57;10.60;65.20
45868;DHT22;31582;45.490;7.860;2023-04-15T21:14:27;10.50;65.60
45868;DHT22;31582;45.490;7.860;2023-04-15T21:16:56;10.50;69.70
45868;DHT22;31582;45.490;7.860;2023-04-15T21:19:23;10.40;68.20
45868;DHT22;31582;45.490;7.860;2023-04-15T21:21:51;10.30;69.90
45868;DHT22;31582;45.490;7.860;2023-04-15T21:24:18;10.30;72.30
45868;DHT22;31582;45.490;7.860;2023-04-15T21:26:45;10.20;74.10
45868;DHT22;31582;45.490;7.860;2023-04-15T21:29:12;10.20;70.00
45868;DHT22;31582;45.490;7.860;2023-04-15T21:31:39;10.10;69.30
45868;DHT22;31582;45.490;7.860;2023-04-15T21:34:06;10.00;71.00
45868;DHT22;31582;45.490;7.860;2023-04-15T21:36:33;9.90;70.20
45868;DHT22;31582;45.490;7.860;2023-04-15T21:39:00;9.90;69.40
45868;DHT22;31582;45.490;7.860;2023-04-15T21:41:27;9.70;74.10
45868;DHT22;31582;45.490;7.860;2023-04-15T21:43:54;9.70;74.70
45868;DHT22;31582;45.490;7.860;2023-04-15T21:46:21;9.60;75.30
45868;DHT22;31582;45.490;7.860;2023-04-15T21:48:58;9.50;75.40
45868;DHT22;31582;45.490;7.860;2023-04-15T21:51:24;9.40;73.80
45868;DHT22;31582;45.490;7.860;2023-04-15T21:53:52;9.30;75.00
45868;DHT22;31582;45.490;7.860;2023-04-15T21:56:19;9.30;76.70
45868;DHT22;31582;45.490;7.860;2023-04-15T21:58:48;9.20;80.00
45868;DHT22;31582;45.490;7.860;2023-04-15T22:01:15;9.10;79.50
45868;DHT22;31582;45.490;7.860;2023-04-15T22:03:44;9.00;77.70
45868;DHT22;31582;45.490;7.860;2023-04-15T22:06:11;9.00;78.10
45868;DHT22;31582;45.490;7.860;2023-04-15T22:08:39;8.90;82.10
45868;DHT22;31582;45.490;7.860;2023-04-15T22:11:22;8.80;84.20
45868;DHT22;31582;45.490;7.860;2023-04-15T22:13:53;8.80;84.60
45868;DHT22;31582;45.490;7.860;2023-04-15T22:16:20;8.80;83.20
45868;DHT22;31582;45.490;7.860;2023-04-15T22:18:47;9.00;79.00
45868;DHT22;31582;45.490;7.860;2023-04-15T22:21:14;9.30;76.00
45868;DHT22;31582;45.490;7.860;2023-04-15T22:23:45;9.70;73.00
45868;DHT22;31582;45.490;7.860;2023-04-15T22:26:13;10.00;70.70
45868;DHT22;31582;45.490;7.860;2023-04-15T22:28:40;10.20;68.70
45868;DHT22;31582;45.490;7.860;2023-04-15T22:31:07;10.50;68.00
45868;DHT22;31582;45.490;7.860;2023-04-15T22:33:34;10.80;67.20
45868;DHT22;31582;45.490;7.860;2023-04-15T22:36:01;11.00;66.50
45868;DHT22;31582;45.490;7.860;2023-04-15T22:38:28;11.30;66.20
45868;DHT22;31582;45.490;7.860;2023-04-15T22:40:54;11.60;64.90
45868;DHT22;31582;45.490;7.860;2023-04-15T22:43:22;11.80;63.60
45868;DHT22;31582;45.490;7.860;2023-04-15T22:45:49;12.00;63.00
45868;DHT22;31582;45.490;7.860;2023-04-15T22:48:17;12.20;61.80
45868;DHT22;31582;45.490;7.860;2023-04-15T22:50:44;12.30;61.40
45868;DHT22;31582;45.490;7.860;2023-04-15T22:53:11;12.40;61.30
45868;DHT22;31582;45.490;7.860;2023-04-15T22:55:38;12.40;59.40
45868;DHT22;31582;45.490;7.860;2023-04-15T22:58:05;12.30;58.30
45868;DHT22;31582;45.490;7.860;2023-04-15T23:00:32;12.10;58.70
45868;DHT22;31582;45.490;7.860;2023-04-15T23:02:59;12.00;58.90
45868;DHT22;31582;45.490;7.860;2023-04-15T23:05:26;11.70;59.80
45868;DHT22;31582;45.490;7.860;2023-04-15T23:07:53;11.50;59.90
45868;DHT22;31582;45.490;7.860;2023-04-15T23:10:20;11.40;60.80
45868;DHT22;31582;45.490;7.860;2023-04-15T23:12:47;11.20;61.60
45868;DHT22;31582;45.490;7.860;2023-04-15T23:15:14;11.10;61.40
45868;DHT22;31582;45.490;7.860;2023-04-15T23:17:41;11.00;61.70
45868;DHT22;31582;45.490;7.860;2023-04-15T23:20:09;10.90;63.70
45868;DHT22;31582;45.490;7.860;2023-04-15T23:22:37;10.70;64.80
45868;DHT22;31582;45.490;7.860;2023-04-15T23:25:04;10.60;63.60
45868;DHT22;31582;45.490;7.860;2023-04-15T23:27:31;10.50;64.30
45868;DHT22;31582;45.490;7.860;2023-04-15T23:29:59;10.40;64.30
45868;DHT22;31582;45.490;7.860;2023-04-15T23:32:26;10.30;64.90
45868;DHT22;31582;45.490;7.860;2023-04-15T23:34:53;10.20;65.00
45868;DHT22;31582;45.490;7.860;2023-04-15T23:37:20;10.20;66.90
45868;DHT22;31582;45.490;7.860;2023-04-15T23:39:46;10.10;65.70
45868;DHT22;31582;45.490;7.860;2023-04-15T23:42:13;10.00;67.10
45868;DHT22;31582;45.490;7.860;2023-04-15T23:44:42;9.90;66.60
45868;DHT22;31582;45.490;7.860;2023-04-15T23:47:10;9.90;66.60
45868;DHT22;31582;45.490;7.860;2023-04-15T23:49:37;9.90;67.10
45868;DHT22;31582;45.490;7.860;2023-04-15T23:52:06;9.80;69.60
45868;DHT22;31582;45.490;7.860;2023-04-15T23:54:33;9.60;71.10
45868;DHT22;31582;45.490;7.860;2023-04-15T23:57:00;9.60;69.50
45868;DHT22;31582;45.490;7.860;2023-04-15T23:59:29;9.50;68.80
